createdAt,value
2019-05-15T00:01:21.148Z,99.90
2019-05-15T00:03:50.622Z,99.90
2019-05-15T00:06:20.064Z,99.90
2019-05-15T00:08:49.536Z,99.90
2019-05-15T00:11:19.337Z,99.90
2019-05-15T00:13:49.021Z,99.90
2019-05-15T00:16:18.463Z,99.90
2019-05-15T00:18:48.340Z,99.90
2019-05-15T00:21:18.104Z,99.90
2019-05-15T00:23:50.287Z,99.90
2019-05-15T00:26:19.889Z,99.90
2019-05-15T00:28:49.420Z,99.90
2019-05-15T00:31:18.897Z,99.90
2019-05-15T00:33:48.409Z,99.90
2019-05-15T00:36:19.181Z,99.90
2019-05-15T00:38:48.865Z,99.90
2019-05-15T00:41:18.578Z,99.90
2019-05-15T00:43:49.354Z,99.90
2019-05-15T00:46:19.022Z,99.90
2019-05-15T00:48:48.892Z,99.90
2019-05-15T00:51:19.585Z,99.90
2019-05-15T00:53:49.361Z,99.90
2019-05-15T00:56:19.497Z,99.90
2019-05-15T00:58:51.626Z,99.90
2019-05-15T01:01:21.067Z,99.90
2019-05-15T01:03:50.575Z,99.90
2019-05-15T01:06:20.018Z,99.90
2019-05-15T01:08:49.521Z,99.90
2019-05-15T01:11:19.295Z,99.90
2019-05-15T01:13:48.838Z,99.90
2019-05-15T01:16:18.731Z,99.90
2019-05-15T01:18:49.190Z,99.90
2019-05-15T01:21:19.775Z,99.90
2019-05-15T01:23:49.246Z,99.90
2019-05-15T01:26:18.970Z,99.90
2019-05-15T01:28:49.556Z,99.90
2019-05-15T01:31:19.268Z,99.90
2019-05-15T01:33:48.761Z,99.90
2019-05-15T01:36:19.325Z,99.90
2019-05-15T01:38:50.072Z,99.90
2019-05-15T01:41:19.559Z,99.90
2019-05-15T01:43:49.203Z,99.90
2019-05-15T01:46:19.226Z,99.90
2019-05-15T01:48:49.444Z,99.90
2019-05-15T01:51:19.093Z,99.90
2019-05-15T01:53:48.589Z,99.90
2019-05-15T01:56:19.094Z,99.90
2019-05-15T01:58:48.817Z,99.90
2019-05-15T02:01:19.423Z,99.90
2019-05-15T02:03:49.295Z,99.90
2019-05-15T02:06:19.126Z,99.90
2019-05-15T02:08:49.936Z,99.90
2019-05-15T02:11:19.444Z,99.90
2019-05-15T02:13:51.780Z,99.90
2019-05-15T02:16:21.240Z,99.90
2019-05-15T02:18:50.709Z,99.90
2019-05-15T02:21:20.170Z,99.90
2019-05-15T02:23:49.609Z,99.90
2019-05-15T02:26:19.130Z,99.90
2019-05-15T02:28:48.878Z,99.90
2019-05-15T02:31:19.574Z,99.90
2019-05-15T02:33:49.757Z,99.90
2019-05-15T02:36:21.041Z,99.90
2019-05-15T02:38:50.492Z,99.90
2019-05-15T02:41:19.984Z,99.90
2019-05-15T02:43:50.191Z,99.90
2019-05-15T02:46:19.938Z,99.90
2019-05-15T02:48:49.556Z,99.90
2019-05-15T02:51:19.571Z,99.90
2019-05-15T02:53:49.951Z,99.90
2019-05-15T02:56:20.683Z,99.90
2019-05-15T02:58:50.354Z,99.90
2019-05-15T03:01:19.823Z,99.90
2019-05-15T03:03:50.135Z,99.90
2019-05-15T03:06:19.793Z,99.90
2019-05-15T03:08:49.833Z,99.90
2019-05-15T03:11:19.505Z,99.90
2019-05-15T03:13:50.408Z,99.90
2019-05-15T03:16:20.210Z,99.90
2019-05-15T03:18:50.521Z,99.90
2019-05-15T03:21:20.637Z,99.90
2019-05-15T03:23:50.856Z,99.90
2019-05-15T03:26:21.639Z,99.90
2019-05-15T03:28:51.165Z,99.90
2019-05-15T03:31:41.734Z,99.90
2019-05-15T03:33:54.653Z,99.90
2019-05-15T03:36:24.713Z,99.90
2019-05-15T03:38:54.333Z,99.90
2019-05-15T03:41:23.863Z,99.90
2019-05-15T03:43:53.461Z,99.90
2019-05-15T03:46:22.934Z,99.90
2019-05-15T03:48:52.363Z,99.90
2019-05-15T03:51:21.853Z,99.90
2019-05-15T03:53:51.359Z,99.90
2019-05-15T03:56:33.272Z,99.90
2019-05-15T03:59:02.796Z,99.90
2019-05-15T04:01:38.702Z,99.90
2019-05-15T04:04:03.433Z,99.90
2019-05-15T04:06:32.962Z,99.90
2019-05-15T04:09:02.576Z,99.90
2019-05-15T04:11:32.098Z,99.90
2019-05-15T04:14:01.782Z,99.90
2019-05-15T04:16:31.410Z,99.90
2019-05-15T04:19:00.915Z,99.90
2019-05-15T04:21:30.576Z,99.90
2019-05-15T04:24:00.488Z,99.90
2019-05-15T04:26:32.482Z,99.90
2019-05-15T04:29:01.947Z,99.90
2019-05-15T04:31:49.785Z,99.90
2019-05-15T04:34:02.473Z,99.90
2019-05-15T04:36:31.928Z,99.90
2019-05-15T04:39:01.383Z,99.90
2019-05-15T04:41:31.737Z,99.90
2019-05-15T04:44:01.205Z,99.90
2019-05-15T04:46:30.734Z,99.90
2019-05-15T04:49:00.328Z,99.90
2019-05-15T04:51:30.623Z,99.90
2019-05-15T04:54:00.268Z,99.90
2019-05-15T04:56:29.815Z,99.90
2019-05-15T04:59:00.173Z,99.90
2019-05-15T05:01:30.943Z,99.90
2019-05-15T05:04:00.475Z,99.90
2019-05-15T05:06:30.196Z,99.90
2019-05-15T05:08:59.804Z,99.90
2019-05-15T05:11:29.353Z,99.90
2019-05-15T05:13:59.202Z,99.90
2019-05-15T05:16:29.869Z,99.90
2019-05-15T05:18:59.529Z,99.90
2019-05-15T05:21:29.035Z,99.90
2019-05-15T05:23:58.688Z,99.90
2019-05-15T05:26:29.343Z,99.90
2019-05-15T05:29:01.356Z,99.90
2019-05-15T05:31:30.380Z,99.90
2019-05-15T05:33:59.852Z,99.90
2019-05-15T05:36:29.496Z,99.90
2019-05-15T05:38:59.030Z,99.90
2019-05-15T05:41:28.481Z,99.90
2019-05-15T05:43:58.723Z,99.90
2019-05-15T05:46:28.400Z,99.90
2019-05-15T05:48:58.300Z,99.90
2019-05-15T05:51:28.238Z,99.90
2019-05-15T05:53:58.982Z,99.90
2019-05-15T05:56:28.849Z,99.90
2019-05-15T05:58:59.372Z,99.90
2019-05-15T06:01:28.802Z,99.90
2019-05-15T06:03:59.253Z,99.90
2019-05-15T06:06:29.274Z,99.90
2019-05-15T06:08:58.761Z,99.90
2019-05-15T06:11:28.297Z,99.90
2019-05-15T06:13:58.433Z,99.90
2019-05-15T06:16:28.432Z,99.90
2019-05-15T06:18:58.599Z,99.30
2019-05-15T06:21:28.611Z,99.40
2019-05-15T06:24:04.220Z,99.70
2019-05-15T06:26:29.245Z,99.00
2019-05-15T06:28:58.726Z,98.90
2019-05-15T06:31:28.224Z,98.60
2019-05-15T06:33:58.083Z,97.80
2019-05-15T06:36:28.884Z,97.60
2019-05-15T06:38:59.028Z,97.60
2019-05-15T06:41:28.744Z,97.90
2019-05-15T06:43:58.903Z,97.60
2019-05-15T06:46:28.419Z,96.80
2019-05-15T06:48:58.215Z,97.40
2019-05-15T06:51:28.819Z,97.20
2019-05-15T06:53:58.970Z,97.30
2019-05-15T06:56:28.421Z,97.60
2019-05-15T06:58:58.261Z,97.20
2019-05-15T07:01:29.507Z,97.20
2019-05-15T07:03:59.200Z,96.20
2019-05-15T07:06:28.845Z,96.40
2019-05-15T07:08:58.765Z,96.50
2019-05-15T07:11:28.340Z,96.60
2019-05-15T07:13:58.165Z,96.90
2019-05-15T07:16:28.391Z,97.10
2019-05-15T07:18:58.915Z,97.20
2019-05-15T07:21:28.703Z,97.40
2019-05-15T07:23:58.483Z,96.80
2019-05-15T07:26:29.041Z,96.70
2019-05-15T07:28:59.541Z,96.90
2019-05-15T07:31:30.942Z,96.10
2019-05-15T07:34:00.397Z,96.40
2019-05-15T07:36:29.834Z,96.30
2019-05-15T07:38:59.312Z,96.50
2019-05-15T07:41:28.776Z,96.80
2019-05-15T07:43:58.731Z,96.10
2019-05-15T07:46:28.879Z,96.50
2019-05-15T07:48:58.603Z,96.40
2019-05-15T07:51:28.697Z,96.90
2019-05-15T07:53:58.604Z,97.50
2019-05-15T07:56:28.955Z,97.90
2019-05-15T07:58:58.748Z,98.30
2019-05-15T08:01:29.112Z,98.20
2019-05-15T08:04:20.719Z,97.30
2019-05-15T08:06:30.865Z,97.40
2019-05-15T08:09:00.322Z,97.40
2019-05-15T08:11:29.869Z,97.40
2019-05-15T08:13:59.296Z,97.40
2019-05-15T08:16:28.906Z,96.90
2019-05-15T08:18:58.317Z,96.70
2019-05-15T08:21:29.193Z,96.00
2019-05-15T08:23:59.177Z,95.90
2019-05-15T08:26:28.998Z,96.60
2019-05-15T08:28:58.452Z,97.10
2019-05-15T08:31:28.869Z,97.30
2019-05-15T08:34:12.306Z,97.50
2019-05-15T08:36:31.245Z,97.70
2019-05-15T08:39:00.709Z,97.10
2019-05-15T08:41:30.262Z,96.20
2019-05-15T08:43:59.718Z,96.20
2019-05-15T08:46:29.221Z,95.40
2019-05-15T08:48:59.497Z,95.80
2019-05-15T08:51:29.020Z,93.40
2019-05-15T08:53:58.475Z,94.40
2019-05-15T08:56:28.924Z,94.70
2019-05-15T08:58:58.590Z,93.60
2019-05-15T09:01:28.813Z,93.60
2019-05-15T09:03:58.424Z,92.60
2019-05-15T09:06:29.178Z,93.10
2019-05-15T09:08:59.176Z,93.10
2019-05-15T09:11:28.797Z,92.30
2019-05-15T09:13:59.641Z,92.90
2019-05-15T09:16:29.764Z,92.20
2019-05-15T09:18:59.385Z,92.00
2019-05-15T09:21:28.846Z,91.90
2019-05-15T09:23:58.874Z,91.40
2019-05-15T09:26:28.693Z,91.40
2019-05-15T09:28:58.597Z,90.40
2019-05-15T09:31:28.599Z,90.20
2019-05-15T09:33:58.708Z,87.10
2019-05-15T09:36:28.848Z,88.30
2019-05-15T09:38:58.673Z,82.70
2019-05-15T09:41:28.598Z,84.90
2019-05-15T09:43:58.337Z,84.80
2019-05-15T09:46:29.187Z,89.20
2019-05-15T09:48:59.556Z,87.80
2019-05-15T09:51:29.136Z,84.00
2019-05-15T09:53:59.720Z,85.30
2019-05-15T09:56:29.350Z,84.60
2019-05-15T09:58:58.828Z,82.60
2019-05-15T10:01:28.609Z,83.60
2019-05-15T10:03:58.114Z,83.40
2019-05-15T10:06:28.676Z,77.70
2019-05-15T10:08:59.361Z,79.10
2019-05-15T10:11:29.062Z,81.90
2019-05-15T10:13:59.517Z,74.70
2019-05-15T10:16:28.950Z,74.30
2019-05-15T10:18:58.406Z,76.60
2019-05-15T10:21:32.204Z,77.10
2019-05-15T10:23:59.276Z,76.70
2019-05-15T10:26:28.867Z,76.70
2019-05-15T10:28:58.537Z,73.40
2019-05-15T10:31:28.381Z,73.50
2019-05-15T10:33:58.409Z,73.90
2019-05-15T10:36:28.133Z,76.80
2019-05-15T10:38:59.209Z,70.60
2019-05-15T10:41:28.858Z,73.50
2019-05-15T10:44:00.366Z,75.20
2019-05-15T10:46:29.415Z,72.20
2019-05-15T10:48:58.949Z,69.00
2019-05-15T10:51:28.725Z,72.60
2019-05-15T10:53:58.289Z,71.40
2019-05-15T10:56:29.200Z,72.80
2019-05-15T10:58:59.003Z,69.50
2019-05-15T11:01:30.697Z,69.00
2019-05-15T11:03:59.833Z,68.80
2019-05-15T11:06:29.268Z,73.00
2019-05-15T11:08:58.766Z,71.00
2019-05-15T11:11:28.219Z,72.00
2019-05-15T11:14:00.313Z,73.30
2019-05-15T11:16:28.851Z,74.10
2019-05-15T11:18:58.586Z,73.10
2019-05-15T11:21:28.184Z,72.80
2019-05-15T11:23:59.074Z,70.10
2019-05-15T11:26:33.487Z,73.20
2019-05-15T11:29:00.861Z,70.20
2019-05-15T11:31:30.396Z,70.80
2019-05-15T11:33:59.964Z,70.20
2019-05-15T11:36:29.440Z,69.60
2019-05-15T11:38:58.909Z,72.10
2019-05-15T11:41:29.422Z,69.80
2019-05-15T11:43:59.215Z,67.50
2019-05-15T11:46:29.208Z,69.00
2019-05-15T11:48:58.928Z,68.50
2019-05-15T11:51:29.153Z,64.10
2019-05-15T11:53:58.919Z,65.70
2019-05-15T11:56:29.528Z,66.70
2019-05-15T11:59:00.293Z,62.40
2019-05-15T12:01:30.894Z,62.10
2019-05-15T12:04:00.383Z,63.60
2019-05-15T12:06:29.818Z,64.70
2019-05-15T12:08:59.449Z,64.30
2019-05-15T12:11:36.687Z,64.00
2019-05-15T12:13:59.945Z,62.90
2019-05-15T12:16:29.382Z,63.00
2019-05-15T12:19:09.182Z,60.00
2019-05-15T12:21:29.898Z,61.80
2019-05-15T12:23:59.386Z,65.00
2019-05-15T12:26:29.384Z,68.60
2019-05-15T12:28:59.196Z,69.70
2019-05-15T12:31:29.800Z,81.50
2019-05-15T12:33:59.185Z,87.70
2019-05-15T12:36:50.169Z,88.40
2019-05-15T12:39:09.007Z,85.10
2019-05-15T13:01:41.886Z,74.10
2019-05-15T13:04:11.475Z,73.20
2019-05-15T13:06:53.147Z,67.90
2019-05-15T13:09:12.017Z,72.90
2019-05-15T13:11:41.459Z,72.20
2019-05-15T13:14:11.012Z,71.30
2019-05-15T13:16:40.450Z,72.00
2019-05-15T13:19:10.739Z,72.20
2019-05-15T13:21:40.182Z,71.20
2019-05-15T13:24:10.714Z,70.60
2019-05-15T13:26:40.176Z,71.20
2019-05-15T13:29:10.763Z,71.20
2019-05-15T13:31:40.293Z,69.20
2019-05-15T13:34:09.757Z,67.60
2019-05-15T13:36:39.431Z,68.20
2019-05-15T13:39:09.139Z,69.70
2019-05-15T13:41:38.769Z,71.30
2019-05-15T13:44:09.033Z,72.70
2019-05-15T13:46:38.702Z,71.50
2019-05-15T13:49:08.414Z,74.10
2019-05-15T13:51:38.542Z,74.30
2019-05-15T13:54:08.675Z,73.20
2019-05-15T13:56:38.374Z,76.10
2019-05-15T13:59:14.174Z,75.90
2019-05-15T14:01:43.592Z,76.60
2019-05-15T14:04:13.034Z,76.50
2019-05-15T14:06:42.495Z,75.30
2019-05-15T14:09:11.957Z,75.80
2019-05-15T14:11:41.441Z,74.00
2019-05-15T14:14:10.972Z,74.80
2019-05-15T14:16:40.438Z,74.10
2019-05-15T14:19:12.642Z,75.80
2019-05-15T14:21:42.112Z,73.80
2019-05-15T14:24:11.582Z,72.70
2019-05-15T14:26:41.114Z,71.80
2019-05-15T14:29:10.573Z,72.60
2019-05-15T14:31:40.034Z,75.50
2019-05-15T14:34:09.477Z,74.70
2019-05-15T14:36:38.944Z,72.10
2019-05-15T14:39:08.709Z,72.20
2019-05-15T14:41:38.337Z,72.90
2019-05-15T14:44:16.914Z,74.70
2019-05-15T14:46:40.479Z,73.60
2019-05-15T14:49:09.939Z,73.00
2019-05-15T14:51:39.401Z,72.70
2019-05-15T14:54:09.816Z,72.60
2019-05-15T14:56:39.304Z,71.20
2019-05-15T14:59:09.295Z,72.90
2019-05-15T15:01:51.460Z,71.80
2019-05-15T15:04:21.290Z,72.70
2019-05-15T15:06:52.383Z,73.20
2019-05-15T15:09:21.893Z,74.70
2019-05-15T15:11:51.352Z,75.40
2019-05-15T15:14:20.788Z,72.80
2019-05-15T15:16:50.257Z,72.40
2019-05-15T15:19:20.789Z,71.90
2019-05-15T15:21:50.284Z,72.50
2019-05-15T15:24:19.717Z,73.30
2019-05-15T15:26:49.457Z,72.60
2019-05-15T15:29:19.899Z,72.70
2019-05-15T15:31:49.687Z,71.80
2019-05-15T15:34:19.759Z,71.60
2019-05-15T15:36:49.485Z,68.70
2019-05-15T15:39:18.956Z,68.30
2019-05-15T15:41:48.673Z,70.20
2019-05-15T15:44:19.140Z,71.00
2019-05-15T15:46:48.804Z,69.00
2019-05-15T15:49:18.389Z,70.60
2019-05-15T15:51:48.750Z,69.90
2019-05-15T15:54:18.805Z,70.90
2019-05-15T15:56:48.671Z,72.40
2019-05-15T15:59:18.343Z,73.30
2019-05-15T16:01:49.443Z,75.60
2019-05-15T16:04:19.148Z,77.40
2019-05-15T16:06:48.703Z,79.80
2019-05-15T16:09:18.861Z,79.00
2019-05-15T16:11:49.317Z,81.80
2019-05-15T16:14:18.994Z,81.70
2019-05-15T16:16:51.529Z,81.60
2019-05-15T16:19:20.903Z,79.90
2019-05-15T16:21:52.031Z,81.20
2019-05-15T16:24:21.948Z,81.10
2019-05-15T16:26:52.502Z,82.10
2019-05-15T16:29:22.135Z,81.00
2019-05-15T16:31:51.664Z,81.90
2019-05-15T16:34:21.136Z,82.60
2019-05-15T16:36:51.734Z,80.80
2019-05-15T16:39:21.165Z,80.30
2019-05-15T16:41:50.624Z,79.40
2019-05-15T16:44:20.260Z,81.40
2019-05-15T16:46:49.718Z,81.30
2019-05-15T16:49:19.350Z,81.50
2019-05-15T16:51:50.857Z,81.90
2019-05-15T16:54:20.344Z,83.10
2019-05-15T16:56:49.817Z,83.40
2019-05-15T16:59:19.253Z,83.80
2019-05-15T17:01:49.078Z,84.00
2019-05-15T17:04:18.627Z,83.90
2019-05-15T17:06:49.339Z,84.50
2019-05-15T17:09:21.730Z,84.30
2019-05-15T17:11:50.015Z,84.50
2019-05-15T17:14:20.030Z,85.50
2019-05-15T17:16:49.686Z,86.40
2019-05-15T17:19:19.089Z,87.20
2019-05-15T17:21:48.571Z,89.20
2019-05-15T17:24:18.010Z,89.80
2019-05-15T17:26:48.418Z,90.20
2019-05-15T17:29:18.505Z,90.50
2019-05-15T17:31:48.888Z,90.40
2019-05-15T17:34:18.589Z,88.30
2019-05-15T17:36:48.993Z,87.30
2019-05-15T17:39:27.040Z,86.00
2019-05-15T17:41:49.779Z,86.90
2019-05-15T17:44:19.312Z,86.50
2019-05-15T17:46:49.061Z,86.60
2019-05-15T17:49:21.444Z,87.80
2019-05-15T17:51:50.880Z,88.00
2019-05-15T17:54:20.413Z,88.10
2019-05-15T17:56:49.853Z,88.10
2019-05-15T17:59:19.342Z,88.70
2019-05-15T18:01:49.216Z,89.20
2019-05-15T18:04:19.194Z,90.00
2019-05-15T18:06:48.640Z,90.30
2019-05-15T18:09:18.800Z,90.50
2019-05-15T18:11:48.527Z,90.90
2019-05-15T18:14:18.045Z,91.00
2019-05-15T18:16:48.787Z,91.30
2019-05-15T18:19:18.895Z,91.30
2019-05-15T18:21:49.770Z,91.80
2019-05-15T18:24:19.491Z,92.30
2019-05-15T18:26:49.905Z,92.50
2019-05-15T18:29:19.389Z,92.70
2019-05-15T18:31:49.022Z,92.60
2019-05-15T18:34:18.927Z,92.70
2019-05-15T18:36:48.594Z,92.70
2019-05-15T18:39:19.251Z,92.70
2019-05-15T18:41:48.684Z,93.20
2019-05-15T18:44:18.918Z,93.30
2019-05-15T18:46:48.821Z,93.60
2019-05-15T18:49:18.545Z,94.10
2019-05-15T18:51:48.085Z,94.40
2019-05-15T18:54:18.947Z,94.50
2019-05-15T18:56:48.967Z,94.90
2019-05-15T18:59:18.735Z,94.70
2019-05-15T19:01:48.465Z,94.70
2019-05-15T19:04:18.463Z,94.80
2019-05-15T19:06:48.111Z,95.00
2019-05-15T19:09:18.863Z,95.10
2019-05-15T19:11:48.931Z,95.00
2019-05-15T19:14:19.466Z,95.00
2019-05-15T19:16:49.242Z,94.90
2019-05-15T19:19:18.818Z,95.30
2019-05-15T19:21:48.902Z,95.40
2019-05-15T19:24:18.655Z,95.80
2019-05-15T19:26:49.181Z,95.90
2019-05-15T19:29:18.718Z,96.40
2019-05-15T19:31:48.156Z,96.80
2019-05-15T19:34:19.046Z,97.30
2019-05-15T19:36:49.590Z,97.70
2019-05-15T19:39:19.048Z,97.60
2019-05-15T19:41:48.548Z,97.70
2019-05-15T19:44:18.125Z,97.90
2019-05-15T19:46:48.007Z,98.20
2019-05-15T19:49:18.044Z,98.30
2019-05-15T19:51:48.635Z,98.50
2019-05-15T19:54:18.424Z,98.60
2019-05-15T19:56:48.276Z,98.60
2019-05-15T19:59:22.339Z,99.00
2019-05-15T20:01:49.995Z,99.10
2019-05-15T20:04:19.740Z,99.50
2019-05-15T20:06:49.252Z,99.60
2019-05-15T20:09:19.357Z,99.70
2019-05-15T20:11:48.820Z,99.80
2019-05-15T20:14:19.898Z,99.90
2019-05-15T20:16:49.421Z,99.90
2019-05-15T20:19:19.365Z,99.90
2019-05-15T20:21:48.893Z,99.90
2019-05-15T20:24:18.489Z,99.90
2019-05-15T20:26:48.582Z,99.90
2019-05-15T20:29:18.301Z,99.90
2019-05-15T20:31:48.365Z,99.90
2019-05-15T20:34:18.108Z,99.90
2019-05-15T20:36:48.778Z,99.90
2019-05-15T20:39:18.448Z,99.90
2019-05-15T20:41:48.750Z,99.90
2019-05-15T20:44:18.351Z,99.90
2019-05-15T20:46:50.661Z,99.90
2019-05-15T20:49:18.881Z,99.90
2019-05-15T20:51:49.020Z,99.90
2019-05-15T20:54:18.494Z,99.90
2019-05-15T20:56:49.022Z,99.90
2019-05-15T20:59:18.628Z,99.90
2019-05-15T21:01:50.912Z,99.90
2019-05-15T21:04:23.876Z,99.90
2019-05-15T21:06:51.373Z,99.90
2019-05-15T21:09:20.838Z,99.90
2019-05-15T21:11:50.356Z,99.90
2019-05-15T21:14:19.828Z,99.90
2019-05-15T21:16:49.288Z,99.90
2019-05-15T21:19:19.044Z,99.90
2019-05-15T21:21:48.686Z,99.90
2019-05-15T21:24:21.013Z,99.90
2019-05-15T21:26:50.548Z,99.90
2019-05-15T21:29:19.993Z,99.90
2019-05-15T21:31:49.480Z,99.90
2019-05-15T21:34:33.393Z,99.90
2019-05-15T21:36:52.205Z,99.90
2019-05-15T21:39:21.475Z,99.90
2019-05-15T21:41:50.980Z,99.90
2019-05-15T21:44:20.488Z,99.90
2019-05-15T21:46:50.222Z,99.90
2019-05-15T21:49:20.671Z,99.90
2019-05-15T21:51:50.138Z,99.90
2019-05-15T21:54:19.608Z,99.90
2019-05-15T21:56:50.470Z,99.90
2019-05-15T21:59:20.011Z,99.90
2019-05-15T22:01:50.675Z,99.90
2019-05-15T22:04:20.113Z,99.90
2019-05-15T22:06:49.675Z,99.90
2019-05-15T22:09:20.875Z,99.90
2019-05-15T22:11:50.641Z,99.90
2019-05-15T22:14:20.148Z,99.90
2019-05-15T22:16:49.690Z,99.90
2019-05-15T22:19:20.806Z,99.90
2019-05-15T22:21:52.161Z,99.90
2019-05-15T22:24:21.605Z,99.90
2019-05-15T22:26:51.709Z,99.90
2019-05-15T22:29:21.153Z,99.90
2019-05-15T22:31:50.686Z,99.90
2019-05-15T22:34:20.131Z,99.90
2019-05-15T22:36:51.040Z,99.90
2019-05-15T22:39:20.776Z,99.90
2019-05-15T22:41:50.361Z,99.90
2019-05-15T22:44:19.835Z,99.90
2019-05-15T22:46:49.331Z,99.90
2019-05-15T22:49:18.796Z,99.90
2019-05-15T22:51:49.357Z,99.90
2019-05-15T22:54:20.470Z,99.90
2019-05-15T22:56:50.277Z,99.90
2019-05-15T22:59:19.917Z,99.90
2019-05-15T23:01:50.522Z,99.90
2019-05-15T23:04:20.030Z,99.90
2019-05-15T23:06:49.517Z,99.90
2019-05-15T23:09:19.036Z,99.90
2019-05-15T23:11:48.617Z,99.90
2019-05-15T23:14:19.689Z,99.90
2019-05-15T23:16:49.229Z,99.90
2019-05-15T23:19:18.873Z,99.90
2019-05-15T23:21:48.755Z,99.90
2019-05-15T23:24:18.844Z,99.90
2019-05-15T23:26:48.457Z,99.90
2019-05-15T23:29:17.925Z,99.90
2019-05-15T23:31:47.392Z,99.90
2019-05-15T23:34:18.742Z,99.90
2019-05-15T23:36:48.386Z,99.90
2019-05-15T23:39:19.542Z,99.90
2019-05-15T23:41:48.967Z,99.90
2019-05-15T23:44:18.492Z,99.90
2019-05-15T23:46:48.775Z,99.90
2019-05-15T23:49:19.881Z,99.90
2019-05-15T23:51:49.434Z,99.90
2019-05-15T23:54:18.914Z,99.90
2019-05-15T23:56:48.342Z,99.90
2019-05-15T23:59:18.750Z,99.90
